Terminal Aerodrome Forecast
Issued by NWS

Home | Current Version | Previous Version | Text Only | Print | Product List | Glossary On
Versions: 1 2 3 4 5 6 7 8 9 10 11 12 13 14 15 16 17 18 19 20 21 22
000
FTUS41 KCAR 290600 AAA
TAFFVE
TAF AMD
KFVE 290648Z 2907/3006 15008KT 6SM -SHRA BR VCTS OVC003CB
     FM290800 16005KT 5SM BR BKN003 OVC006
      TEMPO 2908/2912 1SM BR OVC002
     FM291200 22006KT P6SM OVC008
     FM291400 23007KT P6SM OVC015
     FM291600 24008KT P6SM OVC025
     FM291800 25009KT P6SM BKN040
     FM292200 24006KT P6SM SCT140=

USA.gov is the U.S. government's official web portal to all federal, state and local government web resources and services.